aviador You're here:

PAMH Decoded Metar

MINCHUMINA in AK, USA
Report Time2017-06-25 18:56:00
UTC Time2017-06-25 19:04:49
Flight Rules vfr VFR
WindVRB at 04 kt
Visibility9999 m
Phenomena:N/A
Clouds:N/A
Expected CloudBase > 4,800 ft AGL from Temp-Dew spread
CeilingNone
Temp19°C (ISA +5)
Dew Point07°C (46% RH)
AAT16.9°C
QNH1015 hPa
Density Alt1,404 ft
Elevation702 ft
Report Wrong Elevation
Raw Report
PAMH 251856Z VRB04KT 10SM CLR 19/07 A2998 RMK AO2 SLP300 PWINO
FZRANO RVRNO=

Extra information for PAMH:More info

Metar Taf Metar & Taf Last 4 Metars F.Rules Stats Wind Profile Meteogram Temp Stats Airport Information Weather charts Add Link Nearby VenuesMetar ALERT Operation Metar Decoded Social comments

AIRNAV info for PAMH